createdAt,value
2019-03-10T00:02:12.962Z,98844.61
2019-03-10T00:04:43.791Z,98843.27
2019-03-10T00:07:15.345Z,98843.08
2019-03-10T00:09:46.693Z,98840.48
2019-03-10T00:12:19.222Z,98837.59
2019-03-10T00:14:50.532Z,98837.42
2019-03-10T00:17:21.894Z,98841.43
2019-03-10T00:19:53.370Z,98850.83
2019-03-10T00:22:24.939Z,98838.48
2019-03-10T00:24:56.289Z,98835.59
2019-03-10T00:27:27.546Z,98839.96
2019-03-10T00:29:58.975Z,98837.61
2019-03-10T00:32:31.602Z,98832.00
2019-03-10T00:35:02.803Z,98833.13
2019-03-10T00:37:34.247Z,98845.99
2019-03-10T00:40:08.734Z,98862.03
2019-03-10T00:42:58.448Z,98881.30
2019-03-10T00:45:35.955Z,98862.34
2019-03-10T00:48:30.364Z,98848.31
2019-03-10T00:51:21.667Z,98852.45
2019-03-10T00:53:53.199Z,98854.40
2019-03-10T00:56:24.524Z,98844.04
2019-03-10T00:58:55.793Z,98851.89
2019-03-10T01:01:27.260Z,98842.26
2019-03-10T01:03:58.697Z,98844.84
2019-03-10T01:06:30.110Z,98844.56
2019-03-10T01:09:01.589Z,98854.57
2019-03-10T01:11:34.568Z,98849.50
2019-03-10T01:14:05.893Z,98844.38
2019-03-10T01:16:37.081Z,98848.51
2019-03-10T01:19:08.456Z,98850.52
2019-03-10T01:21:40.270Z,98848.51
2019-03-10T01:24:11.718Z,98833.09
2019-03-10T01:26:43.067Z,98830.20
2019-03-10T01:29:14.539Z,98824.67
2019-03-10T01:31:51.874Z,98817.58
2019-03-10T01:34:45.547Z,98815.19
2019-03-10T01:37:16.772Z,98814.81
2019-03-10T01:39:48.029Z,98797.05
2019-03-10T01:42:19.420Z,98797.02
2019-03-10T01:44:50.773Z,98806.36
2019-03-10T01:47:22.108Z,98799.31
2019-03-10T01:49:53.309Z,98803.41
2019-03-10T01:52:24.656Z,98802.33
2019-03-10T01:54:56.013Z,98802.91
2019-03-10T01:57:27.277Z,98811.19
2019-03-10T01:59:58.691Z,98804.33
2019-03-10T02:02:30.010Z,98802.53
2019-03-10T02:05:01.365Z,98806.09
2019-03-10T02:07:33.022Z,98792.00
2019-03-10T02:10:06.847Z,98785.71
2019-03-10T02:12:38.297Z,98787.37
2019-03-10T02:15:12.502Z,98784.19
2019-03-10T02:17:43.702Z,98773.23
2019-03-10T02:20:17.297Z,98768.88
2019-03-10T02:22:48.673Z,98759.86
2019-03-10T02:25:20.123Z,98747.33
2019-03-10T02:27:52.585Z,98738.00
2019-03-10T02:30:23.985Z,98738.31
2019-03-10T02:32:55.250Z,98734.16
2019-03-10T02:35:26.676Z,98728.05
2019-03-10T02:37:58.089Z,98734.07
2019-03-10T02:40:29.433Z,98728.87
2019-03-10T02:43:00.752Z,98718.52
2019-03-10T02:45:32.001Z,98715.22
2019-03-10T02:48:03.926Z,98702.89
2019-03-10T02:50:35.354Z,98706.52
2019-03-10T02:53:06.675Z,98706.17
2019-03-10T02:55:37.971Z,98702.48
2019-03-10T02:58:09.366Z,98700.05
2019-03-10T03:00:40.711Z,98700.55
2019-03-10T03:03:12.187Z,98692.58
2019-03-10T03:05:43.566Z,98692.65
2019-03-10T03:08:16.942Z,98695.13
2019-03-10T03:10:48.077Z,98697.83
2019-03-10T03:13:19.512Z,98701.07
2019-03-10T03:15:50.847Z,98689.23
2019-03-10T03:18:22.250Z,98684.22
2019-03-10T03:20:53.770Z,98683.81
2019-03-10T03:23:25.104Z,98692.67
2019-03-10T03:25:56.338Z,98690.03
2019-03-10T03:28:27.601Z,98688.86
2019-03-10T03:30:59.100Z,98679.25
2019-03-10T03:33:30.470Z,98675.19
2019-03-10T03:36:05.069Z,98682.75
2019-03-10T03:38:42.591Z,98688.20
2019-03-10T03:41:19.886Z,98680.88
2019-03-10T03:43:51.112Z,98687.24
2019-03-10T03:46:22.452Z,98689.59
2019-03-10T03:48:53.682Z,98676.80
2019-03-10T03:51:25.097Z,98675.00
2019-03-10T03:53:56.468Z,98677.63
2019-03-10T03:56:28.078Z,98680.02
2019-03-10T03:58:59.329Z,98677.36
2019-03-10T04:01:32.201Z,98678.04
2019-03-10T04:04:03.392Z,98674.13
2019-03-10T04:06:34.734Z,98676.88
2019-03-10T04:09:08.064Z,98678.70
2019-03-10T04:11:39.387Z,98678.16
2019-03-10T04:14:10.748Z,98682.63
2019-03-10T04:16:42.088Z,98684.20
2019-03-10T04:19:13.664Z,98678.32
2019-03-10T04:21:45.195Z,98672.73
2019-03-10T04:24:16.535Z,98671.77
2019-03-10T04:26:47.953Z,98672.22
2019-03-10T04:29:21.583Z,98669.85
2019-03-10T04:31:52.330Z,98671.24
2019-03-10T04:34:23.741Z,98660.95
2019-03-10T04:36:55.000Z,98659.81
2019-03-10T04:39:26.370Z,98663.80
2019-03-10T04:41:57.615Z,98663.61
2019-03-10T04:44:29.014Z,98660.81
2019-03-10T04:47:00.475Z,98657.88
2019-03-10T04:49:31.768Z,98654.09
2019-03-10T04:52:03.182Z,98656.24
2019-03-10T04:54:52.572Z,98657.80
2019-03-10T04:57:24.362Z,98653.79
2019-03-10T04:59:55.749Z,98660.65
2019-03-10T05:02:27.707Z,98665.50
2019-03-10T05:04:58.294Z,98669.15
2019-03-10T05:07:29.377Z,98665.81
2019-03-10T05:10:00.699Z,98667.51
2019-03-10T05:12:32.382Z,98672.52
2019-03-10T05:15:05.978Z,98673.94
2019-03-10T05:17:37.316Z,98679.41
2019-03-10T05:20:08.954Z,98671.59
2019-03-10T05:22:40.435Z,98670.03
2019-03-10T05:25:18.144Z,98670.75
2019-03-10T05:27:49.522Z,98667.36
2019-03-10T05:30:20.935Z,98661.76
2019-03-10T05:32:52.315Z,98665.48
2019-03-10T05:35:23.716Z,98662.03
2019-03-10T05:37:55.018Z,98656.47
2019-03-10T05:40:26.297Z,98650.61
2019-03-10T05:42:57.696Z,98657.40
2019-03-10T05:45:28.893Z,98653.14
2019-03-10T05:48:00.223Z,98645.13
2019-03-10T05:50:31.657Z,98647.94
2019-03-10T05:53:03.016Z,98640.70
2019-03-10T05:55:34.292Z,98641.95
2019-03-10T05:58:05.757Z,98647.20
2019-03-10T06:00:42.633Z,98639.39
2019-03-10T06:03:10.286Z,98641.80
2019-03-10T06:05:41.741Z,98640.72
2019-03-10T06:08:13.091Z,98632.41
2019-03-10T06:10:44.651Z,98633.34
2019-03-10T06:13:15.914Z,98637.59
2019-03-10T06:15:47.254Z,98628.02
2019-03-10T06:18:18.436Z,98626.61
2019-03-10T06:20:49.849Z,98633.14
2019-03-10T06:23:21.171Z,98627.99
2019-03-10T06:25:52.627Z,98625.55
2019-03-10T06:28:23.908Z,98625.88
2019-03-10T06:30:56.411Z,98621.05
2019-03-10T06:33:28.008Z,98620.57
2019-03-10T06:35:59.453Z,98613.89
2019-03-10T06:38:30.891Z,98615.39
2019-03-10T06:41:02.182Z,98616.13
2019-03-10T06:43:33.656Z,98616.95
2019-03-10T06:46:05.093Z,98606.21
2019-03-10T06:48:37.633Z,98607.44
2019-03-10T06:51:10.089Z,98607.20
2019-03-10T06:53:41.348Z,98609.95
2019-03-10T06:56:12.673Z,98602.66
2019-03-10T06:58:44.073Z,98591.14
2019-03-10T07:01:15.433Z,98581.59
2019-03-10T07:03:46.787Z,98578.97
2019-03-10T07:06:18.172Z,98577.48
2019-03-10T07:08:49.566Z,98574.55
2019-03-10T07:11:20.906Z,98568.91
2019-03-10T07:13:52.256Z,98572.62
2019-03-10T07:16:23.680Z,98560.09
2019-03-10T07:18:55.135Z,98556.80
2019-03-10T07:21:27.613Z,98556.69
2019-03-10T07:23:59.421Z,98557.94
2019-03-10T07:26:30.889Z,98557.98
2019-03-10T07:29:03.973Z,98559.27
2019-03-10T07:31:42.819Z,98560.52
2019-03-10T07:34:21.311Z,98562.03
2019-03-10T07:37:12.688Z,98551.70
2019-03-10T07:40:03.621Z,98557.62
2019-03-10T07:42:36.700Z,98549.45
2019-03-10T07:45:16.851Z,98558.88
2019-03-10T07:47:55.855Z,98560.08
2019-03-10T07:50:28.759Z,98555.98
2019-03-10T07:53:01.690Z,98548.75
2019-03-10T07:55:37.485Z,98548.39
2019-03-10T07:58:10.361Z,98547.41
2019-03-10T08:00:54.887Z,98541.84
2019-03-10T08:03:36.628Z,98543.13
2019-03-10T08:06:25.043Z,98548.72
2019-03-10T08:09:09.906Z,98553.45
2019-03-10T08:12:01.261Z,98557.69
2019-03-10T08:14:50.201Z,98555.16
2019-03-10T08:17:32.228Z,98544.09
2019-03-10T08:20:05.920Z,98542.16
2019-03-10T08:22:38.928Z,98551.57
2019-03-10T08:25:14.480Z,98543.04
2019-03-10T08:28:00.936Z,98539.91
2019-03-10T08:30:31.136Z,98540.35
2019-03-10T08:33:19.934Z,98541.52
2019-03-10T08:36:08.085Z,98542.53
2019-03-10T08:38:41.057Z,98540.69
2019-03-10T08:41:28.983Z,98535.81
2019-03-10T08:44:04.709Z,98531.09
2019-03-10T08:46:53.336Z,98522.95
2019-03-10T08:49:26.385Z,98516.94
2019-03-10T08:51:59.302Z,98520.30
2019-03-10T08:54:38.206Z,98518.82
2019-03-10T08:57:11.111Z,98509.78
2019-03-10T08:59:44.022Z,98504.11
2019-03-10T09:02:17.039Z,98493.92
2019-03-10T09:05:06.142Z,98491.27
2019-03-10T09:07:41.840Z,98500.73
2019-03-10T09:10:20.775Z,98496.97
2019-03-10T09:12:56.360Z,98497.72
2019-03-10T09:15:44.216Z,98499.43
2019-03-10T09:18:17.176Z,98497.27
2019-03-10T09:21:02.210Z,98498.56
2019-03-10T09:23:35.213Z,98488.08
2019-03-10T09:26:14.023Z,98490.69
2019-03-10T09:28:49.769Z,98482.34
2019-03-10T09:31:28.698Z,98475.11
2019-03-10T09:34:04.247Z,98471.06
2019-03-10T09:36:53.770Z,98458.62
2019-03-10T09:39:26.614Z,98454.88
2019-03-10T09:42:15.532Z,98449.69
2019-03-10T09:44:57.288Z,98441.86
2019-03-10T09:47:44.942Z,98441.13
2019-03-10T09:50:17.679Z,98430.11
2019-03-10T09:53:08.618Z,98430.58
2019-03-10T09:55:57.579Z,98423.94
2019-03-10T09:58:31.371Z,98423.66
2019-03-10T10:01:13.122Z,98415.94
2019-03-10T10:03:48.926Z,98424.75
2019-03-10T10:06:27.746Z,98409.09
2019-03-10T10:09:17.781Z,98413.63
2019-03-10T10:11:54.148Z,98404.05
2019-03-10T10:14:27.183Z,98390.94
2019-03-10T10:17:00.128Z,98387.68
2019-03-10T10:19:36.354Z,98376.79
2019-03-10T10:22:27.532Z,98376.00
2019-03-10T10:25:00.393Z,98370.91
2019-03-10T10:27:33.375Z,98354.05
2019-03-10T10:30:12.764Z,98346.78
2019-03-10T10:32:45.959Z,98347.20
2019-03-10T10:35:35.423Z,98334.81
2019-03-10T10:38:18.949Z,98331.74
2019-03-10T10:40:57.883Z,98322.89
2019-03-10T10:43:33.792Z,98315.30
2019-03-10T10:46:22.853Z,98311.27
2019-03-10T10:48:55.800Z,98304.37
2019-03-10T10:51:31.471Z,98302.13
2019-03-10T10:54:04.478Z,98293.91
2019-03-10T10:56:37.466Z,98282.98
2019-03-10T10:59:10.405Z,98282.47
2019-03-10T11:02:00.529Z,98278.80
2019-03-10T11:04:49.653Z,98262.63
2019-03-10T11:07:37.515Z,98258.95
2019-03-10T11:10:22.954Z,98247.56
2019-03-10T11:13:12.109Z,98234.76
2019-03-10T11:15:53.600Z,98235.67
2019-03-10T11:18:25.829Z,98236.20
2019-03-10T11:21:07.845Z,98230.91
2019-03-10T11:23:46.680Z,98220.25
2019-03-10T11:26:25.423Z,98216.13
2019-03-10T11:29:03.805Z,98211.29
2019-03-10T11:31:42.225Z,98202.56
2019-03-10T11:34:27.291Z,98204.48
2019-03-10T11:37:16.343Z,98191.62
2019-03-10T11:39:49.425Z,98191.24
2019-03-10T11:42:37.244Z,98180.30
2019-03-10T11:45:11.538Z,98175.11
2019-03-10T11:47:47.339Z,98177.86
2019-03-10T11:50:29.500Z,98174.28
2019-03-10T11:53:19.139Z,98174.89
2019-03-10T11:55:49.241Z,98168.77
2019-03-10T11:58:22.321Z,98154.44
2019-03-10T12:00:55.685Z,98143.67
2019-03-10T12:03:29.837Z,98152.41
2019-03-10T12:06:05.737Z,98141.67
2019-03-10T12:08:53.817Z,98133.63
2019-03-10T12:11:25.644Z,98128.34
2019-03-10T12:13:57.079Z,98123.77
2019-03-10T12:16:31.017Z,98114.03
2019-03-10T12:19:01.732Z,98105.29
2019-03-10T12:21:33.283Z,98104.95
2019-03-10T12:24:04.621Z,98092.44
2019-03-10T12:26:36.097Z,98089.75
2019-03-10T12:29:07.451Z,98083.69
2019-03-10T12:31:38.786Z,98072.91
2019-03-10T12:34:10.138Z,98072.38
2019-03-10T12:36:41.548Z,98069.68
2019-03-10T12:39:13.132Z,98059.09
2019-03-10T12:41:44.587Z,98063.77
2019-03-10T12:44:15.940Z,98055.93
2019-03-10T12:46:47.407Z,98046.25
2019-03-10T12:49:18.870Z,98040.15
2019-03-10T12:51:50.354Z,98038.98
2019-03-10T12:54:21.823Z,98039.91
2019-03-10T12:56:53.112Z,98027.56
2019-03-10T12:59:24.559Z,98022.28
2019-03-10T13:01:55.876Z,98022.03
2019-03-10T13:04:27.274Z,98021.97
2019-03-10T13:06:58.655Z,98014.52
2019-03-10T13:09:30.136Z,98016.50
2019-03-10T13:12:01.496Z,98008.52
2019-03-10T13:14:32.755Z,98016.83
2019-03-10T13:17:04.169Z,98014.39
2019-03-10T13:19:35.561Z,98017.77
2019-03-10T13:22:07.042Z,98019.81
2019-03-10T13:24:38.432Z,98035.36
2019-03-10T13:27:10.167Z,98030.30
2019-03-10T13:29:41.605Z,98061.92
2019-03-10T13:32:13.101Z,98068.82
2019-03-10T13:34:44.473Z,98084.14
2019-03-10T13:37:16.449Z,98078.16
2019-03-10T13:39:47.768Z,98078.16
2019-03-10T13:42:19.194Z,98075.52
2019-03-10T13:44:50.619Z,98073.52
2019-03-10T13:47:21.931Z,98067.55
2019-03-10T13:49:55.004Z,98071.53
2019-03-10T13:52:26.420Z,98070.42
2019-03-10T13:54:57.753Z,98076.55
2019-03-10T13:57:30.659Z,98070.36
2019-03-10T14:00:01.973Z,98071.03
2019-03-10T14:02:34.703Z,98060.91
2019-03-10T14:05:07.500Z,98053.70
2019-03-10T14:07:39.065Z,98052.13
2019-03-10T14:10:11.419Z,98043.27
2019-03-10T14:12:42.836Z,98040.48
2019-03-10T14:15:15.729Z,98035.11
2019-03-10T14:17:47.158Z,98031.56
2019-03-10T14:20:18.452Z,98026.18
2019-03-10T14:22:49.776Z,98015.02
2019-03-10T14:25:21.214Z,98005.92
2019-03-10T14:27:52.516Z,97999.08
2019-03-10T14:30:23.892Z,97991.45
2019-03-10T14:32:55.357Z,98014.59
2019-03-10T14:35:26.774Z,98012.58
2019-03-10T14:37:58.244Z,98018.52
2019-03-10T14:40:29.688Z,98041.36
2019-03-10T14:43:00.856Z,98053.91
2019-03-10T14:45:32.081Z,98058.67
2019-03-10T14:48:03.411Z,98067.03
2019-03-10T14:50:34.809Z,98060.98
2019-03-10T14:53:05.992Z,98078.13
2019-03-10T14:55:37.367Z,98077.59
2019-03-10T14:58:08.591Z,98078.93
2019-03-10T15:00:40.177Z,98083.41
2019-03-10T15:03:12.115Z,98083.50
2019-03-10T15:05:43.323Z,98077.80
2019-03-10T15:08:14.628Z,98089.23
2019-03-10T15:10:45.819Z,98092.22
2019-03-10T15:13:17.080Z,98094.29
2019-03-10T15:15:48.277Z,98089.22
2019-03-10T15:18:19.595Z,98079.33
2019-03-10T15:20:58.173Z,98087.70
2019-03-10T15:23:32.697Z,98092.08
2019-03-10T15:26:04.132Z,98098.41
2019-03-10T15:28:35.458Z,98103.87
2019-03-10T15:31:06.982Z,98113.95
2019-03-10T15:33:38.319Z,98113.95
2019-03-10T15:36:19.947Z,98118.70
2019-03-10T15:38:42.936Z,98121.32
2019-03-10T15:41:14.176Z,98126.05
2019-03-10T15:43:45.256Z,98127.71
2019-03-10T15:46:16.714Z,98125.65
2019-03-10T15:48:48.491Z,98131.00
2019-03-10T15:51:21.421Z,98128.79
2019-03-10T15:53:52.863Z,98138.55
2019-03-10T15:56:24.239Z,98140.64
2019-03-10T15:58:55.668Z,98144.18
2019-03-10T16:01:27.034Z,98141.95
2019-03-10T16:04:00.330Z,98152.03
2019-03-10T16:06:31.943Z,98151.17
2019-03-10T16:09:03.288Z,98146.57
2019-03-10T16:11:36.234Z,98145.60
2019-03-10T16:14:07.670Z,98152.62
2019-03-10T16:16:39.027Z,98154.52
2019-03-10T16:19:10.376Z,98152.49
2019-03-10T16:21:41.839Z,98156.86
2019-03-10T16:24:13.286Z,98161.92
2019-03-10T16:26:45.721Z,98169.81
2019-03-10T16:29:17.098Z,98171.42
2019-03-10T16:31:48.540Z,98176.12
2019-03-10T16:34:19.981Z,98196.41
2019-03-10T16:36:51.234Z,98203.30
2019-03-10T16:39:23.228Z,98201.65
2019-03-10T16:41:54.450Z,98210.20
2019-03-10T16:44:25.666Z,98204.97
2019-03-10T16:46:56.899Z,98209.52
2019-03-10T16:49:28.249Z,98218.71
2019-03-10T16:52:00.543Z,98212.55
2019-03-10T16:54:31.628Z,98215.98
2019-03-10T16:57:02.886Z,98216.07
2019-03-10T16:59:34.413Z,98220.52
2019-03-10T17:02:05.847Z,98227.42
2019-03-10T17:04:37.098Z,98224.95
2019-03-10T17:07:08.315Z,98223.52
2019-03-10T17:09:39.918Z,98225.47
2019-03-10T17:12:10.998Z,98221.52
2019-03-10T17:14:42.263Z,98231.44
2019-03-10T17:17:13.557Z,98234.08
2019-03-10T17:19:44.894Z,98233.98
2019-03-10T17:22:16.333Z,98240.33
2019-03-10T17:24:47.571Z,98245.28
2019-03-10T17:27:19.009Z,98245.28
2019-03-10T17:29:51.853Z,98250.61
2019-03-10T17:32:23.082Z,98260.12
2019-03-10T17:34:54.515Z,98264.45
2019-03-10T17:37:25.991Z,98263.25
2019-03-10T17:39:58.956Z,98269.12
2019-03-10T17:42:30.411Z,98269.45
2019-03-10T17:45:02.127Z,98274.46
2019-03-10T17:47:33.532Z,98277.67
2019-03-10T17:50:06.845Z,98277.52
2019-03-10T17:52:38.168Z,98283.66
2019-03-10T17:55:11.906Z,98284.48
2019-03-10T17:57:43.284Z,98273.98
2019-03-10T18:00:39.003Z,98280.03
2019-03-10T18:03:10.316Z,98288.73
2019-03-10T18:05:41.687Z,98297.18
2019-03-10T18:08:13.106Z,98297.03
2019-03-10T18:10:44.453Z,98297.77
2019-03-10T18:13:15.838Z,98295.01
2019-03-10T18:15:47.220Z,98301.63
2019-03-10T18:18:18.649Z,98307.20
2019-03-10T18:20:50.092Z,98307.45
2019-03-10T18:23:21.953Z,98310.01
2019-03-10T18:25:53.393Z,98306.59
2019-03-10T18:28:24.847Z,98309.36
2019-03-10T18:30:56.298Z,98312.17
2019-03-10T18:33:27.600Z,98309.38
2019-03-10T18:36:00.249Z,98309.84
2019-03-10T18:38:31.593Z,98307.83
2019-03-10T18:41:02.903Z,98312.16
2019-03-10T18:43:34.169Z,98310.31
2019-03-10T18:46:05.633Z,98317.63
2019-03-10T18:48:37.675Z,98315.76
2019-03-10T18:51:10.160Z,98322.47
2019-03-10T18:53:41.599Z,98316.91
2019-03-10T18:56:12.961Z,98325.92
2019-03-10T18:58:44.287Z,98338.53
2019-03-10T19:01:17.024Z,98336.16
2019-03-10T19:03:48.253Z,98331.50
2019-03-10T19:06:19.437Z,98335.30
2019-03-10T19:08:50.687Z,98335.03
2019-03-10T19:11:22.071Z,98341.81
2019-03-10T19:13:53.304Z,98348.39
2019-03-10T19:16:24.659Z,98346.53
2019-03-10T19:18:56.003Z,98347.72
2019-03-10T19:21:27.320Z,98354.59
2019-03-10T19:24:00.090Z,98367.56
2019-03-10T19:26:31.330Z,98366.52
2019-03-10T19:29:02.550Z,98370.81
2019-03-10T19:31:33.803Z,98365.34
2019-03-10T19:34:05.073Z,98367.42
2019-03-10T19:36:37.629Z,98368.78
2019-03-10T19:39:09.040Z,98360.84
2019-03-10T19:41:41.763Z,98358.77
2019-03-10T19:44:13.163Z,98359.12
2019-03-10T19:46:44.933Z,98352.91
2019-03-10T19:49:16.241Z,98356.15
2019-03-10T19:51:48.758Z,98351.70
2019-03-10T19:54:19.999Z,98350.43
2019-03-10T19:56:51.209Z,98352.27
2019-03-10T19:59:22.614Z,98351.30
2019-03-10T20:01:53.965Z,98344.78
2019-03-10T20:04:25.275Z,98337.27
2019-03-10T20:06:56.558Z,98338.70
2019-03-10T20:09:27.878Z,98328.29
2019-03-10T20:11:59.090Z,98319.64
2019-03-10T20:14:31.444Z,98318.95
2019-03-10T20:17:02.771Z,98321.89
2019-03-10T20:19:34.035Z,98318.81
2019-03-10T20:22:05.186Z,98317.37
2019-03-10T20:24:36.573Z,98320.00
2019-03-10T20:27:07.814Z,98327.75
2019-03-10T20:29:38.886Z,98322.00
2019-03-10T20:32:14.176Z,98321.18
2019-03-10T20:34:43.193Z,98324.90
2019-03-10T20:37:14.342Z,98319.19
2019-03-10T20:39:45.546Z,98318.73
2019-03-10T20:42:16.812Z,98316.72
2019-03-10T20:44:48.173Z,98308.09
2019-03-10T20:47:19.512Z,98314.97
2019-03-10T20:49:50.666Z,98318.47
2019-03-10T20:52:21.928Z,98318.41
2019-03-10T20:54:53.132Z,98324.30
2019-03-10T20:57:24.378Z,98329.58
2019-03-10T21:00:00.530Z,98336.08
2019-03-10T21:02:29.015Z,98337.25
2019-03-10T21:05:00.352Z,98354.80
2019-03-10T21:07:31.745Z,98363.43
2019-03-10T21:10:03.083Z,98370.08
2019-03-10T21:12:40.680Z,98369.50
2019-03-10T21:15:10.370Z,98374.69
2019-03-10T21:17:41.515Z,98382.51
2019-03-10T21:20:15.558Z,98379.84
2019-03-10T21:22:46.885Z,98385.20
2019-03-10T21:25:29.985Z,98382.81
2019-03-10T21:28:01.207Z,98379.75
2019-03-10T21:30:33.982Z,98388.58
2019-03-10T21:33:05.205Z,98393.03
2019-03-10T21:35:36.407Z,98389.86
2019-03-10T21:38:07.522Z,98390.47
2019-03-10T21:40:38.901Z,98378.97
2019-03-10T21:43:10.116Z,98392.74
2019-03-10T21:45:41.420Z,98383.52
2019-03-10T21:48:12.663Z,98377.10
2019-03-10T21:50:43.882Z,98386.84
2019-03-10T21:53:15.060Z,98388.39
2019-03-10T21:55:46.382Z,98399.46
2019-03-10T21:58:17.730Z,98413.63
2019-03-10T22:00:48.881Z,98418.06
2019-03-10T22:03:20.090Z,98419.98
2019-03-10T22:05:51.481Z,98423.55
2019-03-10T22:08:22.946Z,98426.39
2019-03-10T22:10:54.092Z,98434.41
2019-03-10T22:13:25.386Z,98433.39
2019-03-10T22:15:57.071Z,98435.84
2019-03-10T22:18:28.416Z,98432.41
2019-03-10T22:20:59.792Z,98433.80
2019-03-10T22:23:31.039Z,98435.39
2019-03-10T22:26:02.276Z,98442.37
2019-03-10T22:28:33.558Z,98451.66
2019-03-10T22:31:04.855Z,98462.45
2019-03-10T22:33:36.132Z,98459.45
2019-03-10T22:36:07.543Z,98466.27
2019-03-10T22:38:38.673Z,98472.63
2019-03-10T22:41:09.860Z,98476.14
2019-03-10T22:43:41.067Z,98475.29
2019-03-10T22:46:12.730Z,98483.51
2019-03-10T22:48:44.013Z,98482.45
2019-03-10T22:51:15.193Z,98490.28
2019-03-10T22:53:46.578Z,98501.21
2019-03-10T22:56:17.785Z,98499.53
2019-03-10T22:58:49.167Z,98503.86
2019-03-10T23:01:20.521Z,98505.89
2019-03-10T23:03:51.833Z,98502.25
2019-03-10T23:06:23.189Z,98498.94
2019-03-10T23:08:54.458Z,98508.23
2019-03-10T23:11:25.796Z,98502.22
2019-03-10T23:13:57.191Z,98504.24
2019-03-10T23:16:28.385Z,98500.27
2019-03-10T23:18:59.774Z,98511.47
2019-03-10T23:21:31.112Z,98512.86
2019-03-10T23:24:02.395Z,98520.13
2019-03-10T23:26:35.035Z,98526.80
2019-03-10T23:29:07.494Z,98521.80
2019-03-10T23:31:40.034Z,98521.77
2019-03-10T23:34:11.315Z,98516.50
2019-03-10T23:36:42.756Z,98513.91
2019-03-10T23:39:14.200Z,98514.87
2019-03-10T23:41:45.575Z,98508.59
2019-03-10T23:44:17.117Z,98511.44
2019-03-10T23:46:48.550Z,98505.30
2019-03-10T23:49:19.806Z,98511.25
2019-03-10T23:51:51.260Z,98496.85
2019-03-10T23:54:22.516Z,98503.29
2019-03-10T23:56:54.463Z,98495.03
2019-03-10T23:59:25.912Z,98493.19
